sensor_id;sensor_type;location;lat;lon;timestamp;temperature;humidity
13980;DHT22;73871;49.900;8.594;2023-12-20T00:01:11;5.70;99.90
13980;DHT22;73871;49.900;8.594;2023-12-20T00:03:38;5.60;99.90
13980;DHT22;73871;49.900;8.594;2023-12-20T00:06:09;5.70;99.90
13980;DHT22;73871;49.900;8.594;2023-12-20T00:08:36;5.70;99.90
13980;DHT22;73871;49.900;8.594;2023-12-20T00:11:03;5.60;99.90
13980;DHT22;73871;49.900;8.594;2023-12-20T00:13:29;5.60;99.90
13980;DHT22;73871;49.900;8.594;2023-12-20T00:15:56;5.60;99.90
13980;DHT22;73871;49.900;8.594;2023-12-20T00:18:24;5.60;99.90
13980;DHT22;73871;49.900;8.594;2023-12-20T00:20:50;5.60;99.90
13980;DHT22;73871;49.900;8.594;2023-12-20T00:23:17;5.60;99.90
13980;DHT22;73871;49.900;8.594;2023-12-20T00:25:44;5.60;99.90
13980;DHT22;73871;49.900;8.594;2023-12-20T00:28:11;5.50;99.90
13980;DHT22;73871;49.900;8.594;2023-12-20T00:30:37;5.50;99.90
13980;DHT22;73871;49.900;8.594;2023-12-20T00:33:04;5.60;99.90
13980;DHT22;73871;49.900;8.594;2023-12-20T00:35:31;5.50;99.90
13980;DHT22;73871;49.900;8.594;2023-12-20T00:37:58;5.50;99.90
13980;DHT22;73871;49.900;8.594;2023-12-20T00:40:25;5.50;99.90
13980;DHT22;73871;49.900;8.594;2023-12-20T00:42:52;5.50;99.90
13980;DHT22;73871;49.900;8.594;2023-12-20T00:45:19;5.50;99.90
13980;DHT22;73871;49.900;8.594;2023-12-20T00:47:46;5.50;99.90
13980;DHT22;73871;49.900;8.594;2023-12-20T00:50:13;5.40;99.90
13980;DHT22;73871;49.900;8.594;2023-12-20T00:52:40;5.50;99.90
13980;DHT22;73871;49.900;8.594;2023-12-20T00:55:07;5.50;99.90
13980;DHT22;73871;49.900;8.594;2023-12-20T00:57:34;5.50;99.90
13980;DHT22;73871;49.900;8.594;2023-12-20T01:00:02;5.40;99.90
13980;DHT22;73871;49.900;8.594;2023-12-20T01:02:29;5.40;99.90
13980;DHT22;73871;49.900;8.594;2023-12-20T01:04:55;5.50;99.90
13980;DHT22;73871;49.900;8.594;2023-12-20T01:07:22;5.50;99.90
13980;DHT22;73871;49.900;8.594;2023-12-20T01:09:49;5.50;99.90
13980;DHT22;73871;49.900;8.594;2023-12-20T01:12:16;5.50;99.90
13980;DHT22;73871;49.900;8.594;2023-12-20T01:14:44;5.40;99.90
13980;DHT22;73871;49.900;8.594;2023-12-20T01:17:10;5.50;99.90
13980;DHT22;73871;49.900;8.594;2023-12-20T01:19:37;5.40;99.90
13980;DHT22;73871;49.900;8.594;2023-12-20T01:22:04;5.40;99.90
13980;DHT22;73871;49.900;8.594;2023-12-20T01:24:31;5.40;99.90
13980;DHT22;73871;49.900;8.594;2023-12-20T01:26:58;5.40;99.90
13980;DHT22;73871;49.900;8.594;2023-12-20T01:29:24;5.30;99.90
13980;DHT22;73871;49.900;8.594;2023-12-20T01:31:52;5.30;99.90
13980;DHT22;73871;49.900;8.594;2023-12-20T01:34:18;5.40;99.90
13980;DHT22;73871;49.900;8.594;2023-12-20T01:36:45;5.50;99.90
13980;DHT22;73871;49.900;8.594;2023-12-20T01:39:12;5.40;99.90
13980;DHT22;73871;49.900;8.594;2023-12-20T01:41:53;5.40;99.90
13980;DHT22;73871;49.900;8.594;2023-12-20T01:44:20;5.50;99.90
13980;DHT22;73871;49.900;8.594;2023-12-20T01:46:47;5.40;99.90
13980;DHT22;73871;49.900;8.594;2023-12-20T01:49:15;5.50;99.90
13980;DHT22;73871;49.900;8.594;2023-12-20T01:51:43;5.40;99.90
13980;DHT22;73871;49.900;8.594;2023-12-20T01:54:10;5.40;99.90
13980;DHT22;73871;49.900;8.594;2023-12-20T01:56:37;5.40;99.90
13980;DHT22;73871;49.900;8.594;2023-12-20T01:59:04;5.50;99.90
13980;DHT22;73871;49.900;8.594;2023-12-20T02:01:31;5.50;99.90
13980;DHT22;73871;49.900;8.594;2023-12-20T02:03:59;5.40;99.90
13980;DHT22;73871;49.900;8.594;2023-12-20T02:06:29;5.40;99.90
13980;DHT22;73871;49.900;8.594;2023-12-20T02:08:58;5.40;99.90
13980;DHT22;73871;49.900;8.594;2023-12-20T02:11:26;5.40;99.90
13980;DHT22;73871;49.900;8.594;2023-12-20T02:13:53;5.40;99.90
13980;DHT22;73871;49.900;8.594;2023-12-20T02:16:21;5.40;99.90
13980;DHT22;73871;49.900;8.594;2023-12-20T02:18:48;5.40;99.90
13980;DHT22;73871;49.900;8.594;2023-12-20T02:21:15;5.40;99.90
13980;DHT22;73871;49.900;8.594;2023-12-20T02:23:42;5.40;99.90
13980;DHT22;73871;49.900;8.594;2023-12-20T02:26:09;5.40;99.90
13980;DHT22;73871;49.900;8.594;2023-12-20T02:28:36;5.40;99.90
13980;DHT22;73871;49.900;8.594;2023-12-20T02:31:03;5.40;99.90
13980;DHT22;73871;49.900;8.594;2023-12-20T02:33:30;5.50;99.90
13980;DHT22;73871;49.900;8.594;2023-12-20T02:35:56;5.50;99.90
13980;DHT22;73871;49.900;8.594;2023-12-20T02:38:23;5.50;99.90
13980;DHT22;73871;49.900;8.594;2023-12-20T02:40:50;5.50;99.90
13980;DHT22;73871;49.900;8.594;2023-12-20T02:43:17;5.40;99.90
13980;DHT22;73871;49.900;8.594;2023-12-20T02:45:43;5.40;99.90
13980;DHT22;73871;49.900;8.594;2023-12-20T02:48:10;5.40;99.90
13980;DHT22;73871;49.900;8.594;2023-12-20T02:50:37;5.40;99.90
13980;DHT22;73871;49.900;8.594;2023-12-20T02:53:04;5.40;99.90
13980;DHT22;73871;49.900;8.594;2023-12-20T02:55:31;5.40;99.90
13980;DHT22;73871;49.900;8.594;2023-12-20T02:57:57;5.40;99.90
13980;DHT22;73871;49.900;8.594;2023-12-20T03:00:24;5.50;99.90
13980;DHT22;73871;49.900;8.594;2023-12-20T03:02:52;5.40;99.90
13980;DHT22;73871;49.900;8.594;2023-12-20T03:05:18;5.50;99.90
13980;DHT22;73871;49.900;8.594;2023-12-20T03:07:45;5.40;99.90
13980;DHT22;73871;49.900;8.594;2023-12-20T03:10:13;5.40;99.90
13980;DHT22;73871;49.900;8.594;2023-12-20T03:12:49;5.40;99.90
13980;DHT22;73871;49.900;8.594;2023-12-20T03:15:16;5.40;99.90
13980;DHT22;73871;49.900;8.594;2023-12-20T03:17:43;5.50;99.90
13980;DHT22;73871;49.900;8.594;2023-12-20T03:20:11;5.50;99.90
13980;DHT22;73871;49.900;8.594;2023-12-20T03:22:40;5.50;99.90
13980;DHT22;73871;49.900;8.594;2023-12-20T03:25:07;5.50;99.90
13980;DHT22;73871;49.900;8.594;2023-12-20T03:27:37;5.40;99.90
13980;DHT22;73871;49.900;8.594;2023-12-20T03:30:05;5.40;99.90
13980;DHT22;73871;49.900;8.594;2023-12-20T03:32:32;5.40;99.90
13980;DHT22;73871;49.900;8.594;2023-12-20T03:34:59;5.40;99.90
13980;DHT22;73871;49.900;8.594;2023-12-20T03:37:26;5.50;99.90
13980;DHT22;73871;49.900;8.594;2023-12-20T03:39:53;5.50;99.90
13980;DHT22;73871;49.900;8.594;2023-12-20T03:42:19;5.50;99.90
13980;DHT22;73871;49.900;8.594;2023-12-20T03:44:46;5.50;99.90
13980;DHT22;73871;49.900;8.594;2023-12-20T03:47:13;5.60;99.90
13980;DHT22;73871;49.900;8.594;2023-12-20T03:49:40;5.60;99.90
13980;DHT22;73871;49.900;8.594;2023-12-20T03:52:06;5.60;99.90
13980;DHT22;73871;49.900;8.594;2023-12-20T03:54:35;5.60;99.90
13980;DHT22;73871;49.900;8.594;2023-12-20T03:57:02;5.60;99.90
13980;DHT22;73871;49.900;8.594;2023-12-20T03:59:28;5.70;99.90
13980;DHT22;73871;49.900;8.594;2023-12-20T04:01:55;5.60;99.90
13980;DHT22;73871;49.900;8.594;2023-12-20T04:04:22;5.60;99.90
13980;DHT22;73871;49.900;8.594;2023-12-20T04:06:49;5.60;99.90
13980;DHT22;73871;49.900;8.594;2023-12-20T04:09:15;5.60;99.90
13980;DHT22;73871;49.900;8.594;2023-12-20T04:11:42;5.60;99.90
13980;DHT22;73871;49.900;8.594;2023-12-20T04:14:09;5.50;99.90
13980;DHT22;73871;49.900;8.594;2023-12-20T04:16:37;5.50;99.90
13980;DHT22;73871;49.900;8.594;2023-12-20T04:19:04;5.50;99.90
13980;DHT22;73871;49.900;8.594;2023-12-20T04:21:31;5.50;99.90
13980;DHT22;73871;49.900;8.594;2023-12-20T04:23:58;5.50;99.90
13980;DHT22;73871;49.900;8.594;2023-12-20T04:26:24;5.60;99.90
13980;DHT22;73871;49.900;8.594;2023-12-20T04:28:51;5.50;99.90
13980;DHT22;73871;49.900;8.594;2023-12-20T04:31:21;5.60;99.90
13980;DHT22;73871;49.900;8.594;2023-12-20T04:33:47;5.60;99.90
13980;DHT22;73871;49.900;8.594;2023-12-20T04:36:14;5.60;99.90
13980;DHT22;73871;49.900;8.594;2023-12-20T04:38:41;5.60;99.90
13980;DHT22;73871;49.900;8.594;2023-12-20T04:41:08;5.60;99.90
13980;DHT22;73871;49.900;8.594;2023-12-20T04:43:34;5.60;99.90
13980;DHT22;73871;49.900;8.594;2023-12-20T04:46:01;5.70;99.90
13980;DHT22;73871;49.900;8.594;2023-12-20T04:48:28;5.70;99.90
13980;DHT22;73871;49.900;8.594;2023-12-20T04:50:55;5.60;99.90
13980;DHT22;73871;49.900;8.594;2023-12-20T04:53:22;5.60;99.90
13980;DHT22;73871;49.900;8.594;2023-12-20T04:55:49;5.60;99.90
13980;DHT22;73871;49.900;8.594;2023-12-20T04:58:16;5.70;99.90
13980;DHT22;73871;49.900;8.594;2023-12-20T05:00:43;5.60;99.90
13980;DHT22;73871;49.900;8.594;2023-12-20T05:03:09;5.60;99.90
13980;DHT22;73871;49.900;8.594;2023-12-20T05:05:36;5.70;99.90
13980;DHT22;73871;49.900;8.594;2023-12-20T05:08:03;5.70;99.90
13980;DHT22;73871;49.900;8.594;2023-12-20T05:10:31;5.60;99.90
13980;DHT22;73871;49.900;8.594;2023-12-20T05:12:57;5.40;99.90
13980;DHT22;73871;49.900;8.594;2023-12-20T05:15:24;5.30;99.90
13980;DHT22;73871;49.900;8.594;2023-12-20T05:17:51;5.20;99.90
13980;DHT22;73871;49.900;8.594;2023-12-20T05:20:18;5.20;99.90
13980;DHT22;73871;49.900;8.594;2023-12-20T05:22:44;5.10;99.90
13980;DHT22;73871;49.900;8.594;2023-12-20T05:25:11;5.00;99.90
13980;DHT22;73871;49.900;8.594;2023-12-20T05:27:38;5.00;99.90
13980;DHT22;73871;49.900;8.594;2023-12-20T05:30:06;4.90;99.90
13980;DHT22;73871;49.900;8.594;2023-12-20T05:32:33;4.80;99.90
13980;DHT22;73871;49.900;8.594;2023-12-20T05:34:59;4.80;99.90
13980;DHT22;73871;49.900;8.594;2023-12-20T05:37:26;4.80;99.90
13980;DHT22;73871;49.900;8.594;2023-12-20T05:39:53;4.90;99.90
13980;DHT22;73871;49.900;8.594;2023-12-20T05:42:20;5.00;99.90
13980;DHT22;73871;49.900;8.594;2023-12-20T05:44:46;5.00;99.90
13980;DHT22;73871;49.900;8.594;2023-12-20T05:47:15;5.00;99.90
13980;DHT22;73871;49.900;8.594;2023-12-20T05:49:42;5.00;99.90
13980;DHT22;73871;49.900;8.594;2023-12-20T05:52:09;5.00;99.90
13980;DHT22;73871;49.900;8.594;2023-12-20T05:54:36;4.90;99.90
13980;DHT22;73871;49.900;8.594;2023-12-20T05:57:03;4.80;99.90
13980;DHT22;73871;49.900;8.594;2023-12-20T05:59:29;4.70;99.90
13980;DHT22;73871;49.900;8.594;2023-12-20T06:01:56;4.70;99.90
13980;DHT22;73871;49.900;8.594;2023-12-20T06:04:23;4.80;99.90
13980;DHT22;73871;49.900;8.594;2023-12-20T06:06:50;4.90;99.90
13980;DHT22;73871;49.900;8.594;2023-12-20T06:09:16;4.90;99.90
13980;DHT22;73871;49.900;8.594;2023-12-20T06:11:43;5.00;99.90
13980;DHT22;73871;49.900;8.594;2023-12-20T06:14:10;5.10;99.90
13980;DHT22;73871;49.900;8.594;2023-12-20T06:16:36;5.00;99.90
13980;DHT22;73871;49.900;8.594;2023-12-20T06:19:03;5.00;99.90
13980;DHT22;73871;49.900;8.594;2023-12-20T06:21:30;4.90;99.90
13980;DHT22;73871;49.900;8.594;2023-12-20T06:23:58;4.90;99.90
13980;DHT22;73871;49.900;8.594;2023-12-20T06:26:25;5.00;99.90
13980;DHT22;73871;49.900;8.594;2023-12-20T06:28:52;4.90;99.90
13980;DHT22;73871;49.900;8.594;2023-12-20T06:31:19;4.80;99.90
13980;DHT22;73871;49.900;8.594;2023-12-20T06:33:45;4.70;99.90
13980;DHT22;73871;49.900;8.594;2023-12-20T06:36:13;4.60;99.90
13980;DHT22;73871;49.900;8.594;2023-12-20T06:38:40;4.50;99.90
13980;DHT22;73871;49.900;8.594;2023-12-20T06:41:08;4.40;99.90
13980;DHT22;73871;49.900;8.594;2023-12-20T06:43:35;4.40;99.90
13980;DHT22;73871;49.900;8.594;2023-12-20T06:46:15;4.30;99.90
13980;DHT22;73871;49.900;8.594;2023-12-20T06:48:42;4.40;99.90
13980;DHT22;73871;49.900;8.594;2023-12-20T06:51:14;4.40;99.90
13980;DHT22;73871;49.900;8.594;2023-12-20T06:53:41;4.40;99.90
13980;DHT22;73871;49.900;8.594;2023-12-20T06:56:11;4.20;99.90
13980;DHT22;73871;49.900;8.594;2023-12-20T06:58:43;4.10;99.90
13980;DHT22;73871;49.900;8.594;2023-12-20T07:01:13;4.00;99.90
13980;DHT22;73871;49.900;8.594;2023-12-20T07:03:40;3.90;99.90
13980;DHT22;73871;49.900;8.594;2023-12-20T07:06:08;3.80;99.90
13980;DHT22;73871;49.900;8.594;2023-12-20T07:08:35;3.80;99.90
13980;DHT22;73871;49.900;8.594;2023-12-20T07:11:02;3.80;99.90
13980;DHT22;73871;49.900;8.594;2023-12-20T07:13:29;3.80;99.90
13980;DHT22;73871;49.900;8.594;2023-12-20T07:15:56;3.80;99.90
13980;DHT22;73871;49.900;8.594;2023-12-20T07:18:23;3.80;99.90
13980;DHT22;73871;49.900;8.594;2023-12-20T07:20:50;3.80;99.90
13980;DHT22;73871;49.900;8.594;2023-12-20T07:23:16;3.80;99.90
13980;DHT22;73871;49.900;8.594;2023-12-20T07:25:43;3.90;99.90
13980;DHT22;73871;49.900;8.594;2023-12-20T07:28:10;4.00;99.90
13980;DHT22;73871;49.900;8.594;2023-12-20T07:30:37;4.00;99.90
13980;DHT22;73871;49.900;8.594;2023-12-20T07:33:04;4.10;99.90
13980;DHT22;73871;49.900;8.594;2023-12-20T07:35:31;4.10;99.90
13980;DHT22;73871;49.900;8.594;2023-12-20T07:37:58;4.10;99.90
13980;DHT22;73871;49.900;8.594;2023-12-20T07:40:25;4.10;99.90
13980;DHT22;73871;49.900;8.594;2023-12-20T07:42:52;4.10;99.90
13980;DHT22;73871;49.900;8.594;2023-12-20T07:45:18;4.20;99.90
13980;DHT22;73871;49.900;8.594;2023-12-20T07:47:45;4.40;99.90
13980;DHT22;73871;49.900;8.594;2023-12-20T07:50:12;4.60;99.90
13980;DHT22;73871;49.900;8.594;2023-12-20T07:52:39;4.70;99.90
13980;DHT22;73871;49.900;8.594;2023-12-20T07:55:06;4.80;99.90
13980;DHT22;73871;49.900;8.594;2023-12-20T07:57:33;4.90;99.90
13980;DHT22;73871;49.900;8.594;2023-12-20T08:00:00;5.00;99.90
13980;DHT22;73871;49.900;8.594;2023-12-20T08:02:30;5.00;99.90
13980;DHT22;73871;49.900;8.594;2023-12-20T08:04:56;5.10;99.90
13980;DHT22;73871;49.900;8.594;2023-12-20T08:07:23;5.10;99.90
13980;DHT22;73871;49.900;8.594;2023-12-20T08:09:50;5.10;99.90
13980;DHT22;73871;49.900;8.594;2023-12-20T08:12:18;5.10;99.90
13980;DHT22;73871;49.900;8.594;2023-12-20T08:14:45;5.00;99.90
13980;DHT22;73871;49.900;8.594;2023-12-20T08:17:12;4.90;99.90
13980;DHT22;73871;49.900;8.594;2023-12-20T08:19:39;4.80;99.90
13980;DHT22;73871;49.900;8.594;2023-12-20T08:22:06;4.80;99.90
13980;DHT22;73871;49.900;8.594;2023-12-20T08:24:32;4.90;99.90
13980;DHT22;73871;49.900;8.594;2023-12-20T08:26:59;5.20;99.90
13980;DHT22;73871;49.900;8.594;2023-12-20T08:29:26;5.40;99.90
13980;DHT22;73871;49.900;8.594;2023-12-20T08:31:53;5.50;99.90
13980;DHT22;73871;49.900;8.594;2023-12-20T08:34:23;5.60;99.90
13980;DHT22;73871;49.900;8.594;2023-12-20T08:36:50;5.70;99.90
13980;DHT22;73871;49.900;8.594;2023-12-20T08:39:18;5.80;99.90
13980;DHT22;73871;49.900;8.594;2023-12-20T08:41:44;5.70;99.90
13980;DHT22;73871;49.900;8.594;2023-12-20T08:44:11;5.60;99.90
13980;DHT22;73871;49.900;8.594;2023-12-20T08:46:38;5.60;99.90
13980;DHT22;73871;49.900;8.594;2023-12-20T08:49:04;5.50;99.90
13980;DHT22;73871;49.900;8.594;2023-12-20T08:51:31;5.60;99.90
13980;DHT22;73871;49.900;8.594;2023-12-20T08:53:59;5.80;99.90
13980;DHT22;73871;49.900;8.594;2023-12-20T08:56:25;5.90;99.90
13980;DHT22;73871;49.900;8.594;2023-12-20T08:58:52;5.90;99.90
13980;DHT22;73871;49.900;8.594;2023-12-20T09:01:19;6.00;99.90
13980;DHT22;73871;49.900;8.594;2023-12-20T09:03:46;6.10;99.90
13980;DHT22;73871;49.900;8.594;2023-12-20T09:06:13;6.00;99.90
13980;DHT22;73871;49.900;8.594;2023-12-20T09:08:40;6.00;99.90
13980;DHT22;73871;49.900;8.594;2023-12-20T09:11:07;6.00;99.90
13980;DHT22;73871;49.900;8.594;2023-12-20T09:13:34;6.00;99.90
13980;DHT22;73871;49.900;8.594;2023-12-20T09:16:01;6.00;99.90
13980;DHT22;73871;49.900;8.594;2023-12-20T09:18:27;6.00;99.90
13980;DHT22;73871;49.900;8.594;2023-12-20T09:20:54;6.00;99.90
13980;DHT22;73871;49.900;8.594;2023-12-20T09:23:21;6.10;99.90
13980;DHT22;73871;49.900;8.594;2023-12-20T09:25:48;6.20;99.90
13980;DHT22;73871;49.900;8.594;2023-12-20T09:28:15;6.10;99.90
13980;DHT22;73871;49.900;8.594;2023-12-20T09:30:42;6.10;99.90
13980;DHT22;73871;49.900;8.594;2023-12-20T09:33:09;6.10;99.90
13980;DHT22;73871;49.900;8.594;2023-12-20T09:35:36;6.20;99.90
13980;DHT22;73871;49.900;8.594;2023-12-20T09:38:03;6.20;99.90
13980;DHT22;73871;49.900;8.594;2023-12-20T09:40:32;6.30;99.90
13980;DHT22;73871;49.900;8.594;2023-12-20T09:43:04;6.40;99.90
13980;DHT22;73871;49.900;8.594;2023-12-20T09:45:32;6.30;99.90
13980;DHT22;73871;49.900;8.594;2023-12-20T09:47:59;6.40;99.90
13980;DHT22;73871;49.900;8.594;2023-12-20T09:50:26;6.40;99.90
13980;DHT22;73871;49.900;8.594;2023-12-20T09:52:54;6.50;99.90
13980;DHT22;73871;49.900;8.594;2023-12-20T09:55:25;6.60;99.90
13980;DHT22;73871;49.900;8.594;2023-12-20T09:57:53;6.80;99.90
13980;DHT22;73871;49.900;8.594;2023-12-20T10:00:20;6.80;99.90
13980;DHT22;73871;49.900;8.594;2023-12-20T10:02:57;6.90;99.90
13980;DHT22;73871;49.900;8.594;2023-12-20T10:05:30;6.90;99.90
13980;DHT22;73871;49.900;8.594;2023-12-20T10:07:58;6.90;99.90
13980;DHT22;73871;49.900;8.594;2023-12-20T10:10:27;6.90;99.90
13980;DHT22;73871;49.900;8.594;2023-12-20T10:13:10;7.00;99.90
13980;DHT22;73871;49.900;8.594;2023-12-20T10:15:38;7.00;99.90
13980;DHT22;73871;49.900;8.594;2023-12-20T10:18:05;7.00;99.90
13980;DHT22;73871;49.900;8.594;2023-12-20T10:20:33;7.00;99.90
13980;DHT22;73871;49.900;8.594;2023-12-20T10:23:00;7.00;99.90
13980;DHT22;73871;49.900;8.594;2023-12-20T10:25:28;7.20;99.90
13980;DHT22;73871;49.900;8.594;2023-12-20T10:28:15;7.20;99.90
13980;DHT22;73871;49.900;8.594;2023-12-20T10:30:47;7.30;99.90
13980;DHT22;73871;49.900;8.594;2023-12-20T10:33:26;7.30;99.90
13980;DHT22;73871;49.900;8.594;2023-12-20T10:35:54;7.30;99.90
13980;DHT22;73871;49.900;8.594;2023-12-20T10:38:21;7.30;99.90
13980;DHT22;73871;49.900;8.594;2023-12-20T10:40:49;7.30;99.90
13980;DHT22;73871;49.900;8.594;2023-12-20T10:43:20;7.40;99.90
13980;DHT22;73871;49.900;8.594;2023-12-20T10:45:47;7.50;99.90
13980;DHT22;73871;49.900;8.594;2023-12-20T10:48:15;7.50;99.90
13980;DHT22;73871;49.900;8.594;2023-12-20T10:50:43;7.40;99.90
13980;DHT22;73871;49.900;8.594;2023-12-20T10:53:11;7.40;99.90
13980;DHT22;73871;49.900;8.594;2023-12-20T10:55:39;7.40;99.90
13980;DHT22;73871;49.900;8.594;2023-12-20T10:58:09;7.40;99.90
13980;DHT22;73871;49.900;8.594;2023-12-20T11:00:41;7.40;99.90
13980;DHT22;73871;49.900;8.594;2023-12-20T11:03:11;7.40;99.90
13980;DHT22;73871;49.900;8.594;2023-12-20T11:05:59;7.50;99.90
13980;DHT22;73871;49.900;8.594;2023-12-20T11:08:53;7.60;99.90
13980;DHT22;73871;49.900;8.594;2023-12-20T11:11:27;7.60;99.90
13980;DHT22;73871;49.900;8.594;2023-12-20T11:14:03;7.70;99.90
13980;DHT22;73871;49.900;8.594;2023-12-20T11:16:32;7.70;99.90
13980;DHT22;73871;49.900;8.594;2023-12-20T11:19:14;7.80;99.90
13980;DHT22;73871;49.900;8.594;2023-12-20T11:21:41;7.70;99.90
13980;DHT22;73871;49.900;8.594;2023-12-20T11:24:09;7.70;99.90
13980;DHT22;73871;49.900;8.594;2023-12-20T11:26:36;7.70;99.90
13980;DHT22;73871;49.900;8.594;2023-12-20T11:29:41;7.70;99.90
13980;DHT22;73871;49.900;8.594;2023-12-20T11:34:51;7.80;99.90
13980;DHT22;73871;49.900;8.594;2023-12-20T11:37:19;7.80;99.90
13980;DHT22;73871;49.900;8.594;2023-12-20T11:39:55;7.80;99.90
13980;DHT22;73871;49.900;8.594;2023-12-20T11:42:23;7.90;99.90
13980;DHT22;73871;49.900;8.594;2023-12-20T11:44:50;8.00;99.90
13980;DHT22;73871;49.900;8.594;2023-12-20T11:47:17;7.90;99.90
13980;DHT22;73871;49.900;8.594;2023-12-20T11:49:48;7.90;99.90
13980;DHT22;73871;49.900;8.594;2023-12-20T11:52:16;8.00;99.90
13980;DHT22;73871;49.900;8.594;2023-12-20T11:54:42;8.00;99.90
13980;DHT22;73871;49.900;8.594;2023-12-20T11:57:09;8.00;99.90
13980;DHT22;73871;49.900;8.594;2023-12-20T11:59:36;8.00;99.90
13980;DHT22;73871;49.900;8.594;2023-12-20T12:02:03;8.10;99.90
13980;DHT22;73871;49.900;8.594;2023-12-20T12:04:30;8.10;99.90
13980;DHT22;73871;49.900;8.594;2023-12-20T12:06:57;8.10;99.90
13980;DHT22;73871;49.900;8.594;2023-12-20T12:09:24;8.10;99.90
13980;DHT22;73871;49.900;8.594;2023-12-20T12:11:51;8.10;99.90
13980;DHT22;73871;49.900;8.594;2023-12-20T12:14:18;8.10;99.90
13980;DHT22;73871;49.900;8.594;2023-12-20T12:16:46;8.10;99.90
13980;DHT22;73871;49.900;8.594;2023-12-20T12:19:26;8.20;99.90
13980;DHT22;73871;49.900;8.594;2023-12-20T12:24:42;8.20;99.90
13980;DHT22;73871;49.900;8.594;2023-12-20T12:27:10;8.20;99.90
13980;DHT22;73871;49.900;8.594;2023-12-20T12:29:37;8.30;99.90
13980;DHT22;73871;49.900;8.594;2023-12-20T12:32:08;8.30;99.90
13980;DHT22;73871;49.900;8.594;2023-12-20T12:34:36;8.50;99.90
13980;DHT22;73871;49.900;8.594;2023-12-20T12:37:06;8.60;99.90
13980;DHT22;73871;49.900;8.594;2023-12-20T12:39:34;8.80;99.90
13980;DHT22;73871;49.900;8.594;2023-12-20T12:42:00;8.80;99.90
13980;DHT22;73871;49.900;8.594;2023-12-20T12:44:27;8.90;99.90
13980;DHT22;73871;49.900;8.594;2023-12-20T12:46:54;8.90;99.90
13980;DHT22;73871;49.900;8.594;2023-12-20T12:49:21;9.00;99.90
13980;DHT22;73871;49.900;8.594;2023-12-20T12:51:48;9.10;99.90
13980;DHT22;73871;49.900;8.594;2023-12-20T12:54:15;9.20;99.90
13980;DHT22;73871;49.900;8.594;2023-12-20T12:56:43;9.00;99.90
13980;DHT22;73871;49.900;8.594;2023-12-20T12:59:10;8.90;99.90
13980;DHT22;73871;49.900;8.594;2023-12-20T13:01:37;8.70;99.90
13980;DHT22;73871;49.900;8.594;2023-12-20T13:04:05;8.50;99.90
13980;DHT22;73871;49.900;8.594;2023-12-20T13:06:37;8.50;99.90
13980;DHT22;73871;49.900;8.594;2023-12-20T13:09:07;8.50;99.90
13980;DHT22;73871;49.900;8.594;2023-12-20T13:11:36;8.50;99.90
13980;DHT22;73871;49.900;8.594;2023-12-20T13:14:02;8.50;99.90
13980;DHT22;73871;49.900;8.594;2023-12-20T13:16:30;8.70;99.90
13980;DHT22;73871;49.900;8.594;2023-12-20T13:18:57;8.80;99.90
13980;DHT22;73871;49.900;8.594;2023-12-20T13:21:26;8.70;99.90
13980;DHT22;73871;49.900;8.594;2023-12-20T13:23:53;8.80;99.90
13980;DHT22;73871;49.900;8.594;2023-12-20T13:26:20;8.80;99.90
13980;DHT22;73871;49.900;8.594;2023-12-20T13:28:47;9.10;99.90
13980;DHT22;73871;49.900;8.594;2023-12-20T13:31:14;9.30;99.90
13980;DHT22;73871;49.900;8.594;2023-12-20T13:33:41;9.50;99.90
13980;DHT22;73871;49.900;8.594;2023-12-20T13:36:08;9.50;99.90
13980;DHT22;73871;49.900;8.594;2023-12-20T13:38:35;9.30;99.90
13980;DHT22;73871;49.900;8.594;2023-12-20T13:41:02;9.30;99.90
13980;DHT22;73871;49.900;8.594;2023-12-20T13:43:29;9.30;99.90
13980;DHT22;73871;49.900;8.594;2023-12-20T13:45:56;9.10;99.90
13980;DHT22;73871;49.900;8.594;2023-12-20T13:48:23;9.00;99.90
13980;DHT22;73871;49.900;8.594;2023-12-20T13:50:50;9.00;99.90
13980;DHT22;73871;49.900;8.594;2023-12-20T13:53:16;8.90;99.90
13980;DHT22;73871;49.900;8.594;2023-12-20T13:55:43;8.90;99.90
13980;DHT22;73871;49.900;8.594;2023-12-20T13:58:10;8.90;99.90
13980;DHT22;73871;49.900;8.594;2023-12-20T14:00:37;9.00;99.90
13980;DHT22;73871;49.900;8.594;2023-12-20T14:03:04;9.10;99.90
13980;DHT22;73871;49.900;8.594;2023-12-20T14:05:31;9.20;99.90
13980;DHT22;73871;49.900;8.594;2023-12-20T14:07:58;9.10;99.90
13980;DHT22;73871;49.900;8.594;2023-12-20T14:10:26;9.00;99.90
13980;DHT22;73871;49.900;8.594;2023-12-20T14:12:56;8.90;99.90
13980;DHT22;73871;49.900;8.594;2023-12-20T14:15:23;8.80;99.90
13980;DHT22;73871;49.900;8.594;2023-12-20T14:17:52;8.70;99.90
13980;DHT22;73871;49.900;8.594;2023-12-20T14:20:19;8.70;99.90
13980;DHT22;73871;49.900;8.594;2023-12-20T14:22:46;8.70;99.90
13980;DHT22;73871;49.900;8.594;2023-12-20T14:25:14;8.80;99.90
13980;DHT22;73871;49.900;8.594;2023-12-20T14:27:41;8.70;99.90
13980;DHT22;73871;49.900;8.594;2023-12-20T14:30:11;8.80;99.90
13980;DHT22;73871;49.900;8.594;2023-12-20T14:32:40;8.70;99.90
13980;DHT22;73871;49.900;8.594;2023-12-20T14:35:07;8.60;99.90
13980;DHT22;73871;49.900;8.594;2023-12-20T14:37:35;8.60;99.90
13980;DHT22;73871;49.900;8.594;2023-12-20T14:40:06;8.50;99.90
13980;DHT22;73871;49.900;8.594;2023-12-20T14:42:37;8.50;99.90
13980;DHT22;73871;49.900;8.594;2023-12-20T14:45:04;8.40;99.90
13980;DHT22;73871;49.900;8.594;2023-12-20T14:47:31;8.40;99.90
13980;DHT22;73871;49.900;8.594;2023-12-20T14:49:57;8.40;99.90
13980;DHT22;73871;49.900;8.594;2023-12-20T14:52:24;8.40;99.90
13980;DHT22;73871;49.900;8.594;2023-12-20T14:54:51;8.40;99.90
13980;DHT22;73871;49.900;8.594;2023-12-20T14:57:18;8.50;99.90
13980;DHT22;73871;49.900;8.594;2023-12-20T14:59:44;8.50;99.90
13980;DHT22;73871;49.900;8.594;2023-12-20T15:02:11;8.40;99.90
13980;DHT22;73871;49.900;8.594;2023-12-20T15:04:38;8.40;99.90
13980;DHT22;73871;49.900;8.594;2023-12-20T15:07:05;8.40;99.90
13980;DHT22;73871;49.900;8.594;2023-12-20T15:09:32;8.30;99.90
13980;DHT22;73871;49.900;8.594;2023-12-20T15:11:59;8.30;99.90
13980;DHT22;73871;49.900;8.594;2023-12-20T15:14:26;8.20;99.90
13980;DHT22;73871;49.900;8.594;2023-12-20T15:16:54;8.20;99.90
13980;DHT22;73871;49.900;8.594;2023-12-20T15:19:22;8.10;99.90
13980;DHT22;73871;49.900;8.594;2023-12-20T15:21:49;8.00;99.90
13980;DHT22;73871;49.900;8.594;2023-12-20T15:24:16;8.10;99.90
13980;DHT22;73871;49.900;8.594;2023-12-20T15:26:46;8.00;99.90
13980;DHT22;73871;49.900;8.594;2023-12-20T15:29:13;8.00;99.90
13980;DHT22;73871;49.900;8.594;2023-12-20T15:31:47;8.00;99.90
13980;DHT22;73871;49.900;8.594;2023-12-20T15:34:15;8.00;99.90
13980;DHT22;73871;49.900;8.594;2023-12-20T15:36:42;8.00;99.90
13980;DHT22;73871;49.900;8.594;2023-12-20T15:39:10;7.90;99.90
13980;DHT22;73871;49.900;8.594;2023-12-20T15:41:40;7.90;99.90
13980;DHT22;73871;49.900;8.594;2023-12-20T15:44:08;7.90;99.90
13980;DHT22;73871;49.900;8.594;2023-12-20T15:46:34;7.90;99.90
13980;DHT22;73871;49.900;8.594;2023-12-20T15:49:01;7.90;99.90
13980;DHT22;73871;49.900;8.594;2023-12-20T15:51:28;7.90;99.90
13980;DHT22;73871;49.900;8.594;2023-12-20T15:53:55;7.90;99.90